ěÝzenÝ letovÚho provozu ╚eskÚ republiky
Letiste: LKCR Aktualizace: 25.05.2024 07:01:05  UTC
 METAR LKCR 25.05. 07:00 ...
METAR LKCR 250700Z AUTO 11005KT 9999 BKN029 BKN097 17/14 Q1018=